sensor_id;sensor_type;location;lat;lon;timestamp;P1;durP1;ratioP1;P2;durP2;ratioP2
71836;SDS011;59686;51.716;7.016;2024-01-30T00:02:14;14.03;;;11.53;;
71836;SDS011;59686;51.716;7.016;2024-01-30T00:04:40;14.63;;;11.77;;
71836;SDS011;59686;51.716;7.016;2024-01-30T00:07:05;13.83;;;10.87;;
71836;SDS011;59686;51.716;7.016;2024-01-30T00:09:31;13.73;;;11.37;;
71836;SDS011;59686;51.716;7.016;2024-01-30T00:11:57;14.13;;;10.83;;
71836;SDS011;59686;51.716;7.016;2024-01-30T00:14:22;12.30;;;10.73;;
71836;SDS011;59686;51.716;7.016;2024-01-30T00:16:48;13.90;;;11.33;;
71836;SDS011;59686;51.716;7.016;2024-01-30T00:19:15;13.37;;;11.10;;
71836;SDS011;59686;51.716;7.016;2024-01-30T00:21:41;13.90;;;11.40;;
71836;SDS011;59686;51.716;7.016;2024-01-30T00:24:06;14.67;;;11.23;;
71836;SDS011;59686;51.716;7.016;2024-01-30T00:26:32;14.20;;;11.00;;
71836;SDS011;59686;51.716;7.016;2024-01-30T00:31:56;13.27;;;10.57;;
71836;SDS011;59686;51.716;7.016;2024-01-30T00:34:21;13.13;;;10.40;;
71836;SDS011;59686;51.716;7.016;2024-01-30T00:36:47;14.40;;;11.10;;
71836;SDS011;59686;51.716;7.016;2024-01-30T00:39:13;13.10;;;10.50;;
71836;SDS011;59686;51.716;7.016;2024-01-30T00:41:40;12.50;;;9.67;;
71836;SDS011;59686;51.716;7.016;2024-01-30T00:44:06;13.80;;;10.53;;
71836;SDS011;59686;51.716;7.016;2024-01-30T00:46:32;11.97;;;10.30;;
71836;SDS011;59686;51.716;7.016;2024-01-30T00:48:57;13.40;;;10.20;;
71836;SDS011;59686;51.716;7.016;2024-01-30T00:51:23;12.80;;;9.97;;
71836;SDS011;59686;51.716;7.016;2024-01-30T00:53:49;13.80;;;10.20;;
71836;SDS011;59686;51.716;7.016;2024-01-30T00:56:14;12.20;;;9.87;;
71836;SDS011;59686;51.716;7.016;2024-01-30T00:58:43;12.03;;;10.50;;
71836;SDS011;59686;51.716;7.016;2024-01-30T01:03:53;13.27;;;9.80;;
71836;SDS011;59686;51.716;7.016;2024-01-30T01:06:18;11.60;;;9.03;;
71836;SDS011;59686;51.716;7.016;2024-01-30T01:08:44;10.87;;;8.60;;
71836;SDS011;59686;51.716;7.016;2024-01-30T01:11:10;11.57;;;9.47;;
71836;SDS011;59686;51.716;7.016;2024-01-30T01:13:36;12.20;;;9.93;;
71836;SDS011;59686;51.716;7.016;2024-01-30T01:16:08;11.27;;;9.07;;
71836;SDS011;59686;51.716;7.016;2024-01-30T01:18:34;11.17;;;9.40;;
71836;SDS011;59686;51.716;7.016;2024-01-30T01:21:00;11.47;;;9.30;;
71836;SDS011;59686;51.716;7.016;2024-01-30T01:23:26;11.17;;;9.30;;
71836;SDS011;59686;51.716;7.016;2024-01-30T01:25:51;11.63;;;9.23;;
71836;SDS011;59686;51.716;7.016;2024-01-30T01:28:17;12.10;;;9.00;;
71836;SDS011;59686;51.716;7.016;2024-01-30T01:30:43;10.07;;;8.50;;
71836;SDS011;59686;51.716;7.016;2024-01-30T01:33:09;11.47;;;8.63;;
71836;SDS011;59686;51.716;7.016;2024-01-30T01:35:35;11.90;;;9.23;;
71836;SDS011;59686;51.716;7.016;2024-01-30T01:38:01;11.53;;;8.83;;
71836;SDS011;59686;51.716;7.016;2024-01-30T01:40:27;10.67;;;8.77;;
71836;SDS011;59686;51.716;7.016;2024-01-30T01:45:44;10.50;;;8.23;;
71836;SDS011;59686;51.716;7.016;2024-01-30T01:48:10;9.40;;;7.83;;
71836;SDS011;59686;51.716;7.016;2024-01-30T01:53:29;9.90;;;7.97;;
71836;SDS011;59686;51.716;7.016;2024-01-30T01:55:55;9.47;;;8.00;;
71836;SDS011;59686;51.716;7.016;2024-01-30T02:00:57;9.87;;;7.93;;
71836;SDS011;59686;51.716;7.016;2024-01-30T02:03:24;9.93;;;8.10;;
71836;SDS011;59686;51.716;7.016;2024-01-30T02:05:50;10.50;;;8.50;;
71836;SDS011;59686;51.716;7.016;2024-01-30T02:08:16;9.77;;;7.40;;
71836;SDS011;59686;51.716;7.016;2024-01-30T02:10:42;9.10;;;7.90;;
71836;SDS011;59686;51.716;7.016;2024-01-30T02:13:08;10.40;;;8.07;;
71836;SDS011;59686;51.716;7.016;2024-01-30T02:15:33;9.67;;;8.23;;
71836;SDS011;59686;51.716;7.016;2024-01-30T02:17:59;9.70;;;8.00;;
71836;SDS011;59686;51.716;7.016;2024-01-30T02:20:25;9.13;;;7.60;;
71836;SDS011;59686;51.716;7.016;2024-01-30T02:22:52;8.43;;;7.53;;
71836;SDS011;59686;51.716;7.016;2024-01-30T02:25:29;9.90;;;7.93;;
71836;SDS011;59686;51.716;7.016;2024-01-30T02:27:58;8.70;;;7.53;;
71836;SDS011;59686;51.716;7.016;2024-01-30T02:30:24;9.17;;;7.67;;
71836;SDS011;59686;51.716;7.016;2024-01-30T02:32:49;8.97;;;7.40;;
71836;SDS011;59686;51.716;7.016;2024-01-30T02:35:15;9.13;;;7.33;;
71836;SDS011;59686;51.716;7.016;2024-01-30T02:37:41;10.40;;;7.87;;
71836;SDS011;59686;51.716;7.016;2024-01-30T02:40:06;8.53;;;7.23;;
71836;SDS011;59686;51.716;7.016;2024-01-30T02:42:32;9.93;;;7.60;;
71836;SDS011;59686;51.716;7.016;2024-01-30T02:45:00;9.90;;;7.13;;
71836;SDS011;59686;51.716;7.016;2024-01-30T02:47:26;8.57;;;7.67;;
71836;SDS011;59686;51.716;7.016;2024-01-30T02:49:51;7.60;;;6.53;;
71836;SDS011;59686;51.716;7.016;2024-01-30T02:52:17;8.80;;;7.00;;
71836;SDS011;59686;51.716;7.016;2024-01-30T02:54:43;8.83;;;7.03;;
71836;SDS011;59686;51.716;7.016;2024-01-30T02:57:19;9.37;;;7.63;;
71836;SDS011;59686;51.716;7.016;2024-01-30T02:59:45;8.13;;;6.90;;
71836;SDS011;59686;51.716;7.016;2024-01-30T03:02:10;8.60;;;7.10;;
71836;SDS011;59686;51.716;7.016;2024-01-30T03:04:36;9.10;;;6.90;;
71836;SDS011;59686;51.716;7.016;2024-01-30T03:07:02;9.00;;;6.80;;
71836;SDS011;59686;51.716;7.016;2024-01-30T03:09:28;7.47;;;6.53;;
71836;SDS011;59686;51.716;7.016;2024-01-30T03:12:01;8.83;;;7.33;;
71836;SDS011;59686;51.716;7.016;2024-01-30T03:14:27;7.33;;;6.50;;
71836;SDS011;59686;51.716;7.016;2024-01-30T03:16:53;8.47;;;6.67;;
71836;SDS011;59686;51.716;7.016;2024-01-30T03:19:19;9.50;;;6.90;;
71836;SDS011;59686;51.716;7.016;2024-01-30T03:21:45;8.47;;;6.40;;
71836;SDS011;59686;51.716;7.016;2024-01-30T03:24:10;9.90;;;6.57;;
71836;SDS011;59686;51.716;7.016;2024-01-30T03:26:36;8.90;;;6.43;;
71836;SDS011;59686;51.716;7.016;2024-01-30T03:29:01;7.43;;;5.90;;
71836;SDS011;59686;51.716;7.016;2024-01-30T03:31:27;8.27;;;6.50;;
71836;SDS011;59686;51.716;7.016;2024-01-30T03:33:53;7.73;;;6.80;;
71836;SDS011;59686;51.716;7.016;2024-01-30T03:36:19;7.27;;;6.20;;
71836;SDS011;59686;51.716;7.016;2024-01-30T03:38:45;9.57;;;6.73;;
71836;SDS011;59686;51.716;7.016;2024-01-30T03:41:10;6.57;;;5.50;;
71836;SDS011;59686;51.716;7.016;2024-01-30T03:43:36;7.13;;;6.37;;
71836;SDS011;59686;51.716;7.016;2024-01-30T03:46:02;8.67;;;5.90;;
71836;SDS011;59686;51.716;7.016;2024-01-30T03:48:28;7.47;;;6.30;;
71836;SDS011;59686;51.716;7.016;2024-01-30T03:50:54;7.97;;;6.67;;
71836;SDS011;59686;51.716;7.016;2024-01-30T03:53:20;7.60;;;6.23;;
71836;SDS011;59686;51.716;7.016;2024-01-30T03:55:45;8.63;;;6.10;;
71836;SDS011;59686;51.716;7.016;2024-01-30T03:58:11;7.03;;;6.03;;
71836;SDS011;59686;51.716;7.016;2024-01-30T04:00:55;6.93;;;5.90;;
71836;SDS011;59686;51.716;7.016;2024-01-30T04:03:21;6.63;;;5.93;;
71836;SDS011;59686;51.716;7.016;2024-01-30T04:05:47;6.50;;;5.80;;
71836;SDS011;59686;51.716;7.016;2024-01-30T04:08:12;7.87;;;5.87;;
71836;SDS011;59686;51.716;7.016;2024-01-30T04:10:38;7.07;;;6.30;;
71836;SDS011;59686;51.716;7.016;2024-01-30T04:13:03;6.40;;;5.80;;
71836;SDS011;59686;51.716;7.016;2024-01-30T04:15:29;6.20;;;5.40;;
71836;SDS011;59686;51.716;7.016;2024-01-30T04:17:57;6.23;;;5.60;;
71836;SDS011;59686;51.716;7.016;2024-01-30T04:20:24;6.50;;;5.27;;
71836;SDS011;59686;51.716;7.016;2024-01-30T04:22:50;7.57;;;6.20;;
71836;SDS011;59686;51.716;7.016;2024-01-30T04:25:16;7.97;;;6.20;;
71836;SDS011;59686;51.716;7.016;2024-01-30T04:27:42;6.83;;;5.80;;
71836;SDS011;59686;51.716;7.016;2024-01-30T04:30:07;6.97;;;5.77;;
71836;SDS011;59686;51.716;7.016;2024-01-30T04:32:34;7.63;;;6.40;;
71836;SDS011;59686;51.716;7.016;2024-01-30T04:35:00;7.97;;;5.47;;
71836;SDS011;59686;51.716;7.016;2024-01-30T04:37:26;6.67;;;5.77;;
71836;SDS011;59686;51.716;7.016;2024-01-30T04:39:51;6.33;;;5.70;;
71836;SDS011;59686;51.716;7.016;2024-01-30T04:42:17;7.30;;;6.13;;
71836;SDS011;59686;51.716;7.016;2024-01-30T04:44:43;7.87;;;6.10;;
71836;SDS011;59686;51.716;7.016;2024-01-30T04:47:08;5.97;;;5.37;;
71836;SDS011;59686;51.716;7.016;2024-01-30T04:49:36;7.17;;;5.83;;
71836;SDS011;59686;51.716;7.016;2024-01-30T04:52:04;7.47;;;5.23;;
71836;SDS011;59686;51.716;7.016;2024-01-30T04:54:30;6.10;;;5.50;;
71836;SDS011;59686;51.716;7.016;2024-01-30T04:56:55;6.00;;;5.40;;
71836;SDS011;59686;51.716;7.016;2024-01-30T04:59:21;6.57;;;5.70;;
71836;SDS011;59686;51.716;7.016;2024-01-30T05:02:01;6.63;;;5.50;;
71836;SDS011;59686;51.716;7.016;2024-01-30T05:04:26;5.73;;;5.13;;
71836;SDS011;59686;51.716;7.016;2024-01-30T05:06:52;6.90;;;5.53;;
71836;SDS011;59686;51.716;7.016;2024-01-30T05:09:18;6.40;;;5.60;;
71836;SDS011;59686;51.716;7.016;2024-01-30T05:11:44;6.43;;;5.33;;
71836;SDS011;59686;51.716;7.016;2024-01-30T05:14:09;7.43;;;5.70;;
71836;SDS011;59686;51.716;7.016;2024-01-30T05:16:36;6.60;;;5.27;;
71836;SDS011;59686;51.716;7.016;2024-01-30T05:19:02;6.13;;;5.40;;
71836;SDS011;59686;51.716;7.016;2024-01-30T05:21:28;6.87;;;5.67;;
71836;SDS011;59686;51.716;7.016;2024-01-30T05:23:53;7.57;;;5.30;;
71836;SDS011;59686;51.716;7.016;2024-01-30T05:26:19;7.13;;;6.03;;
71836;SDS011;59686;51.716;7.016;2024-01-30T05:28:45;7.73;;;5.90;;
71836;SDS011;59686;51.716;7.016;2024-01-30T05:31:26;6.40;;;5.30;;
71836;SDS011;59686;51.716;7.016;2024-01-30T05:33:52;6.70;;;5.67;;
71836;SDS011;59686;51.716;7.016;2024-01-30T05:36:17;7.47;;;5.80;;
71836;SDS011;59686;51.716;7.016;2024-01-30T05:38:43;6.00;;;5.40;;
71836;SDS011;59686;51.716;7.016;2024-01-30T05:41:09;6.30;;;5.30;;
71836;SDS011;59686;51.716;7.016;2024-01-30T05:43:34;7.93;;;5.53;;
71836;SDS011;59686;51.716;7.016;2024-01-30T05:46:00;7.23;;;5.20;;
71836;SDS011;59686;51.716;7.016;2024-01-30T05:48:26;6.73;;;5.03;;
71836;SDS011;59686;51.716;7.016;2024-01-30T05:50:51;7.13;;;5.60;;
71836;SDS011;59686;51.716;7.016;2024-01-30T05:53:17;6.70;;;5.80;;
71836;SDS011;59686;51.716;7.016;2024-01-30T05:55:43;6.27;;;5.03;;
71836;SDS011;59686;51.716;7.016;2024-01-30T05:58:08;6.97;;;5.30;;
71836;SDS011;59686;51.716;7.016;2024-01-30T06:00:42;5.97;;;5.17;;
71836;SDS011;59686;51.716;7.016;2024-01-30T06:03:08;7.23;;;5.77;;
71836;SDS011;59686;51.716;7.016;2024-01-30T06:05:34;6.53;;;5.77;;
71836;SDS011;59686;51.716;7.016;2024-01-30T06:07:59;6.97;;;5.63;;
71836;SDS011;59686;51.716;7.016;2024-01-30T06:10:25;7.43;;;5.60;;
71836;SDS011;59686;51.716;7.016;2024-01-30T06:12:50;7.33;;;5.67;;
71836;SDS011;59686;51.716;7.016;2024-01-30T06:15:16;6.23;;;5.20;;
71836;SDS011;59686;51.716;7.016;2024-01-30T06:17:42;8.27;;;5.90;;
71836;SDS011;59686;51.716;7.016;2024-01-30T06:20:07;6.13;;;5.50;;
71836;SDS011;59686;51.716;7.016;2024-01-30T06:22:33;7.07;;;5.77;;
71836;SDS011;59686;51.716;7.016;2024-01-30T06:24:59;7.13;;;6.20;;
71836;SDS011;59686;51.716;7.016;2024-01-30T06:27:24;6.00;;;5.20;;
71836;SDS011;59686;51.716;7.016;2024-01-30T06:29:50;6.90;;;5.67;;
71836;SDS011;59686;51.716;7.016;2024-01-30T06:32:16;6.73;;;5.43;;
71836;SDS011;59686;51.716;7.016;2024-01-30T06:34:41;6.33;;;5.50;;
71836;SDS011;59686;51.716;7.016;2024-01-30T06:37:09;6.77;;;5.73;;
71836;SDS011;59686;51.716;7.016;2024-01-30T06:39:35;7.37;;;5.80;;
71836;SDS011;59686;51.716;7.016;2024-01-30T06:42:00;6.90;;;5.40;;
71836;SDS011;59686;51.716;7.016;2024-01-30T06:44:26;7.30;;;5.87;;
71836;SDS011;59686;51.716;7.016;2024-01-30T06:46:52;6.87;;;5.80;;
71836;SDS011;59686;51.716;7.016;2024-01-30T06:49:17;7.83;;;5.70;;
71836;SDS011;59686;51.716;7.016;2024-01-30T06:51:43;7.20;;;5.80;;
71836;SDS011;59686;51.716;7.016;2024-01-30T06:54:09;6.23;;;5.60;;
71836;SDS011;59686;51.716;7.016;2024-01-30T06:56:34;6.53;;;5.57;;
71836;SDS011;59686;51.716;7.016;2024-01-30T06:59:00;7.87;;;5.23;;
71836;SDS011;59686;51.716;7.016;2024-01-30T07:04:26;7.87;;;5.80;;
71836;SDS011;59686;51.716;7.016;2024-01-30T07:06:52;6.53;;;5.60;;
71836;SDS011;59686;51.716;7.016;2024-01-30T07:09:18;6.63;;;5.93;;
71836;SDS011;59686;51.716;7.016;2024-01-30T07:11:44;6.80;;;6.10;;
71836;SDS011;59686;51.716;7.016;2024-01-30T07:14:11;8.13;;;6.13;;
71836;SDS011;59686;51.716;7.016;2024-01-30T07:16:37;7.57;;;6.30;;
71836;SDS011;59686;51.716;7.016;2024-01-30T07:19:03;7.23;;;6.43;;
71836;SDS011;59686;51.716;7.016;2024-01-30T07:21:29;6.60;;;5.90;;
71836;SDS011;59686;51.716;7.016;2024-01-30T07:23:54;6.67;;;5.50;;
71836;SDS011;59686;51.716;7.016;2024-01-30T07:26:20;6.57;;;5.87;;
71836;SDS011;59686;51.716;7.016;2024-01-30T07:28:46;7.27;;;5.87;;
71836;SDS011;59686;51.716;7.016;2024-01-30T07:31:12;7.50;;;5.70;;
71836;SDS011;59686;51.716;7.016;2024-01-30T07:33:37;6.77;;;5.40;;
71836;SDS011;59686;51.716;7.016;2024-01-30T07:38:33;7.57;;;5.80;;
71836;SDS011;59686;51.716;7.016;2024-01-30T07:40:59;6.90;;;6.07;;
71836;SDS011;59686;51.716;7.016;2024-01-30T07:43:25;8.23;;;6.40;;
71836;SDS011;59686;51.716;7.016;2024-01-30T07:45:50;7.07;;;5.97;;
71836;SDS011;59686;51.716;7.016;2024-01-30T07:48:16;8.17;;;5.97;;
71836;SDS011;59686;51.716;7.016;2024-01-30T07:50:42;7.07;;;6.00;;
71836;SDS011;59686;51.716;7.016;2024-01-30T07:53:07;6.80;;;6.10;;
71836;SDS011;59686;51.716;7.016;2024-01-30T07:55:43;8.27;;;6.23;;
71836;SDS011;59686;51.716;7.016;2024-01-30T07:58:11;7.60;;;6.07;;
71836;SDS011;59686;51.716;7.016;2024-01-30T08:00:37;7.33;;;5.60;;
71836;SDS011;59686;51.716;7.016;2024-01-30T08:03:03;6.60;;;5.87;;
71836;SDS011;59686;51.716;7.016;2024-01-30T08:05:29;7.13;;;5.80;;
71836;SDS011;59686;51.716;7.016;2024-01-30T08:07:55;8.37;;;6.27;;
71836;SDS011;59686;51.716;7.016;2024-01-30T08:10:28;7.37;;;6.30;;
71836;SDS011;59686;51.716;7.016;2024-01-30T08:12:54;7.30;;;6.07;;
71836;SDS011;59686;51.716;7.016;2024-01-30T08:15:20;6.83;;;5.90;;
71836;SDS011;59686;51.716;7.016;2024-01-30T08:17:45;6.00;;;5.13;;
71836;SDS011;59686;51.716;7.016;2024-01-30T08:20:11;6.63;;;5.77;;
71836;SDS011;59686;51.716;7.016;2024-01-30T08:22:40;7.23;;;6.03;;
71836;SDS011;59686;51.716;7.016;2024-01-30T08:25:06;7.07;;;6.07;;
71836;SDS011;59686;51.716;7.016;2024-01-30T08:27:32;6.83;;;5.93;;
71836;SDS011;59686;51.716;7.016;2024-01-30T08:30:00;8.53;;;5.97;;
71836;SDS011;59686;51.716;7.016;2024-01-30T08:32:28;6.63;;;5.63;;
71836;SDS011;59686;51.716;7.016;2024-01-30T08:34:54;6.30;;;5.40;;
71836;SDS011;59686;51.716;7.016;2024-01-30T08:37:19;6.30;;;5.67;;
71836;SDS011;59686;51.716;7.016;2024-01-30T08:39:45;6.60;;;5.67;;
71836;SDS011;59686;51.716;7.016;2024-01-30T08:42:11;7.60;;;5.77;;
71836;SDS011;59686;51.716;7.016;2024-01-30T08:44:36;6.90;;;5.87;;
71836;SDS011;59686;51.716;7.016;2024-01-30T08:47:03;7.27;;;6.27;;
71836;SDS011;59686;51.716;7.016;2024-01-30T08:49:29;5.77;;;5.17;;
71836;SDS011;59686;51.716;7.016;2024-01-30T08:51:55;7.00;;;5.67;;
71836;SDS011;59686;51.716;7.016;2024-01-30T08:54:33;7.93;;;5.70;;
71836;SDS011;59686;51.716;7.016;2024-01-30T08:57:00;6.83;;;5.63;;
71836;SDS011;59686;51.716;7.016;2024-01-30T08:59:25;7.07;;;6.00;;
71836;SDS011;59686;51.716;7.016;2024-01-30T09:01:51;8.20;;;6.30;;
71836;SDS011;59686;51.716;7.016;2024-01-30T09:04:20;8.60;;;6.20;;
71836;SDS011;59686;51.716;7.016;2024-01-30T09:06:46;7.00;;;6.30;;
71836;SDS011;59686;51.716;7.016;2024-01-30T09:09:14;7.03;;;6.10;;
71836;SDS011;59686;51.716;7.016;2024-01-30T09:11:39;6.87;;;5.93;;
71836;SDS011;59686;51.716;7.016;2024-01-30T09:14:05;6.87;;;5.87;;
71836;SDS011;59686;51.716;7.016;2024-01-30T09:16:31;7.17;;;5.80;;
71836;SDS011;59686;51.716;7.016;2024-01-30T09:18:57;8.43;;;6.50;;
71836;SDS011;59686;51.716;7.016;2024-01-30T09:21:23;7.73;;;5.97;;
71836;SDS011;59686;51.716;7.016;2024-01-30T09:23:48;7.73;;;6.00;;
71836;SDS011;59686;51.716;7.016;2024-01-30T09:26:14;6.37;;;5.67;;
71836;SDS011;59686;51.716;7.016;2024-01-30T09:28:40;7.17;;;5.73;;
71836;SDS011;59686;51.716;7.016;2024-01-30T09:31:17;7.03;;;5.67;;
71836;SDS011;59686;51.716;7.016;2024-01-30T09:33:42;8.17;;;6.13;;
71836;SDS011;59686;51.716;7.016;2024-01-30T09:36:09;6.93;;;5.63;;
71836;SDS011;59686;51.716;7.016;2024-01-30T09:38:35;6.27;;;5.60;;
71836;SDS011;59686;51.716;7.016;2024-01-30T09:41:02;9.03;;;6.33;;
71836;SDS011;59686;51.716;7.016;2024-01-30T09:43:32;7.67;;;5.70;;
71836;SDS011;59686;51.716;7.016;2024-01-30T09:45:59;7.90;;;6.10;;
71836;SDS011;59686;51.716;7.016;2024-01-30T09:48:27;8.27;;;6.00;;
71836;SDS011;59686;51.716;7.016;2024-01-30T09:50:58;7.37;;;5.60;;
71836;SDS011;59686;51.716;7.016;2024-01-30T09:53:24;6.30;;;5.60;;
71836;SDS011;59686;51.716;7.016;2024-01-30T09:55:50;8.23;;;6.00;;
71836;SDS011;59686;51.716;7.016;2024-01-30T09:58:16;8.80;;;6.07;;
71836;SDS011;59686;51.716;7.016;2024-01-30T10:00:42;7.87;;;6.17;;
71836;SDS011;59686;51.716;7.016;2024-01-30T10:03:08;7.93;;;5.97;;
71836;SDS011;59686;51.716;7.016;2024-01-30T10:05:34;7.03;;;5.63;;
71836;SDS011;59686;51.716;7.016;2024-01-30T10:08:05;8.27;;;6.17;;
71836;SDS011;59686;51.716;7.016;2024-01-30T10:10:33;7.87;;;5.70;;
71836;SDS011;59686;51.716;7.016;2024-01-30T10:13:00;7.83;;;5.73;;
71836;SDS011;59686;51.716;7.016;2024-01-30T10:15:26;9.43;;;5.80;;
71836;SDS011;59686;51.716;7.016;2024-01-30T10:17:53;7.00;;;5.73;;
71836;SDS011;59686;51.716;7.016;2024-01-30T10:20:19;6.53;;;5.63;;
71836;SDS011;59686;51.716;7.016;2024-01-30T10:22:47;8.73;;;6.80;;
71836;SDS011;59686;51.716;7.016;2024-01-30T10:25:14;9.47;;;6.70;;
71836;SDS011;59686;51.716;7.016;2024-01-30T10:27:40;9.13;;;7.03;;
71836;SDS011;59686;51.716;7.016;2024-01-30T10:30:06;8.53;;;7.00;;
71836;SDS011;59686;51.716;7.016;2024-01-30T10:32:33;8.77;;;6.73;;
71836;SDS011;59686;51.716;7.016;2024-01-30T10:34:58;9.47;;;6.57;;
71836;SDS011;59686;51.716;7.016;2024-01-30T10:37:24;9.47;;;6.70;;
71836;SDS011;59686;51.716;7.016;2024-01-30T10:39:51;8.50;;;6.40;;
71836;SDS011;59686;51.716;7.016;2024-01-30T10:42:20;10.37;;;7.03;;
71836;SDS011;59686;51.716;7.016;2024-01-30T10:47:41;9.33;;;6.73;;
71836;SDS011;59686;51.716;7.016;2024-01-30T10:50:11;9.00;;;6.60;;
71836;SDS011;59686;51.716;7.016;2024-01-30T10:52:37;8.90;;;6.20;;
71836;SDS011;59686;51.716;7.016;2024-01-30T10:55:04;7.43;;;6.23;;
71836;SDS011;59686;51.716;7.016;2024-01-30T10:57:31;8.30;;;5.63;;
71836;SDS011;59686;51.716;7.016;2024-01-30T11:00:01;9.80;;;6.50;;
71836;SDS011;59686;51.716;7.016;2024-01-30T11:02:35;7.93;;;5.77;;
71836;SDS011;59686;51.716;7.016;2024-01-30T11:05:06;8.33;;;6.20;;
71836;SDS011;59686;51.716;7.016;2024-01-30T11:07:33;10.83;;;6.53;;
71836;SDS011;59686;51.716;7.016;2024-01-30T11:10:00;9.23;;;6.53;;
71836;SDS011;59686;51.716;7.016;2024-01-30T11:12:29;6.93;;;6.13;;
71836;SDS011;59686;51.716;7.016;2024-01-30T11:15:02;8.13;;;6.03;;
71836;SDS011;59686;51.716;7.016;2024-01-30T11:17:44;9.57;;;6.17;;
71836;SDS011;59686;51.716;7.016;2024-01-30T11:22:48;8.00;;;6.23;;
71836;SDS011;59686;51.716;7.016;2024-01-30T11:25:16;10.70;;;6.10;;
71836;SDS011;59686;51.716;7.016;2024-01-30T11:27:42;8.77;;;6.87;;
71836;SDS011;59686;51.716;7.016;2024-01-30T11:30:09;8.67;;;6.23;;
71836;SDS011;59686;51.716;7.016;2024-01-30T11:32:35;10.07;;;6.63;;
71836;SDS011;59686;51.716;7.016;2024-01-30T11:35:13;11.63;;;6.47;;
71836;SDS011;59686;51.716;7.016;2024-01-30T11:37:40;8.13;;;6.40;;
71836;SDS011;59686;51.716;7.016;2024-01-30T11:40:08;8.20;;;6.00;;
71836;SDS011;59686;51.716;7.016;2024-01-30T11:42:34;8.13;;;6.53;;
71836;SDS011;59686;51.716;7.016;2024-01-30T11:45:04;8.53;;;6.13;;
71836;SDS011;59686;51.716;7.016;2024-01-30T11:47:30;8.37;;;6.40;;
71836;SDS011;59686;51.716;7.016;2024-01-30T11:49:56;7.13;;;5.87;;
71836;SDS011;59686;51.716;7.016;2024-01-30T11:52:22;10.27;;;6.20;;
71836;SDS011;59686;51.716;7.016;2024-01-30T11:54:48;8.23;;;6.03;;
71836;SDS011;59686;51.716;7.016;2024-01-30T11:57:14;9.07;;;6.17;;
71836;SDS011;59686;51.716;7.016;2024-01-30T11:59:39;9.37;;;6.30;;
71836;SDS011;59686;51.716;7.016;2024-01-30T12:02:05;11.20;;;6.37;;
71836;SDS011;59686;51.716;7.016;2024-01-30T12:04:33;7.20;;;6.43;;
71836;SDS011;59686;51.716;7.016;2024-01-30T12:06:58;9.23;;;6.37;;
71836;SDS011;59686;51.716;7.016;2024-01-30T12:09:24;8.20;;;6.63;;
71836;SDS011;59686;51.716;7.016;2024-01-30T12:11:50;9.87;;;6.40;;
71836;SDS011;59686;51.716;7.016;2024-01-30T12:14:16;10.67;;;6.10;;
71836;SDS011;59686;51.716;7.016;2024-01-30T12:16:42;9.53;;;6.30;;
71836;SDS011;59686;51.716;7.016;2024-01-30T12:19:08;8.93;;;6.10;;
71836;SDS011;59686;51.716;7.016;2024-01-30T12:21:34;9.80;;;6.17;;
71836;SDS011;59686;51.716;7.016;2024-01-30T12:24:00;8.57;;;6.03;;
71836;SDS011;59686;51.716;7.016;2024-01-30T12:26:26;8.53;;;6.07;;
71836;SDS011;59686;51.716;7.016;2024-01-30T12:28:55;8.60;;;6.10;;
71836;SDS011;59686;51.716;7.016;2024-01-30T12:31:31;11.43;;;6.83;;
71836;SDS011;59686;51.716;7.016;2024-01-30T12:33:59;9.80;;;6.93;;
71836;SDS011;59686;51.716;7.016;2024-01-30T12:36:25;8.47;;;6.00;;
71836;SDS011;59686;51.716;7.016;2024-01-30T12:38:51;11.20;;;6.27;;
71836;SDS011;59686;51.716;7.016;2024-01-30T12:41:17;9.37;;;5.80;;
71836;SDS011;59686;51.716;7.016;2024-01-30T12:43:43;8.87;;;6.17;;
71836;SDS011;59686;51.716;7.016;2024-01-30T12:46:09;7.53;;;6.00;;
71836;SDS011;59686;51.716;7.016;2024-01-30T12:48:35;11.70;;;5.93;;
71836;SDS011;59686;51.716;7.016;2024-01-30T12:51:01;10.47;;;6.53;;
71836;SDS011;59686;51.716;7.016;2024-01-30T12:53:26;13.43;;;6.43;;
71836;SDS011;59686;51.716;7.016;2024-01-30T12:55:52;8.23;;;5.87;;
71836;SDS011;59686;51.716;7.016;2024-01-30T12:58:19;11.97;;;6.53;;
71836;SDS011;59686;51.716;7.016;2024-01-30T13:00:45;11.93;;;6.30;;
71836;SDS011;59686;51.716;7.016;2024-01-30T13:03:12;9.37;;;6.10;;
71836;SDS011;59686;51.716;7.016;2024-01-30T13:05:38;8.10;;;6.07;;
71836;SDS011;59686;51.716;7.016;2024-01-30T13:08:03;7.90;;;5.83;;
71836;SDS011;59686;51.716;7.016;2024-01-30T13:10:29;10.40;;;6.47;;
71836;SDS011;59686;51.716;7.016;2024-01-30T13:12:55;10.07;;;6.33;;
71836;SDS011;59686;51.716;7.016;2024-01-30T13:15:21;8.40;;;6.20;;
71836;SDS011;59686;51.716;7.016;2024-01-30T13:17:48;12.17;;;6.40;;
71836;SDS011;59686;51.716;7.016;2024-01-30T13:20:14;7.77;;;6.13;;
71836;SDS011;59686;51.716;7.016;2024-01-30T13:22:44;8.90;;;6.53;;
71836;SDS011;59686;51.716;7.016;2024-01-30T13:25:10;11.07;;;6.33;;
71836;SDS011;59686;51.716;7.016;2024-01-30T13:27:36;8.50;;;5.93;;
71836;SDS011;59686;51.716;7.016;2024-01-30T13:30:02;9.97;;;6.37;;
71836;SDS011;59686;51.716;7.016;2024-01-30T13:32:29;10.03;;;6.20;;
71836;SDS011;59686;51.716;7.016;2024-01-30T13:34:54;9.13;;;6.40;;
71836;SDS011;59686;51.716;7.016;2024-01-30T13:37:20;14.67;;;6.33;;
71836;SDS011;59686;51.716;7.016;2024-01-30T13:39:47;11.23;;;6.53;;
71836;SDS011;59686;51.716;7.016;2024-01-30T13:42:20;10.40;;;6.60;;
71836;SDS011;59686;51.716;7.016;2024-01-30T13:44:45;8.87;;;5.93;;
71836;SDS011;59686;51.716;7.016;2024-01-30T13:47:11;10.07;;;6.40;;
71836;SDS011;59686;51.716;7.016;2024-01-30T13:49:37;9.80;;;6.83;;
71836;SDS011;59686;51.716;7.016;2024-01-30T13:54:33;9.10;;;5.97;;
71836;SDS011;59686;51.716;7.016;2024-01-30T13:56:59;9.30;;;6.37;;
71836;SDS011;59686;51.716;7.016;2024-01-30T13:59:25;10.03;;;6.33;;
71836;SDS011;59686;51.716;7.016;2024-01-30T14:01:52;8.97;;;6.03;;
71836;SDS011;59686;51.716;7.016;2024-01-30T14:04:17;8.20;;;6.27;;
71836;SDS011;59686;51.716;7.016;2024-01-30T14:06:43;9.17;;;6.57;;
71836;SDS011;59686;51.716;7.016;2024-01-30T14:09:09;9.30;;;6.30;;
71836;SDS011;59686;51.716;7.016;2024-01-30T14:11:36;9.73;;;6.43;;
71836;SDS011;59686;51.716;7.016;2024-01-30T14:14:07;8.47;;;6.10;;
71836;SDS011;59686;51.716;7.016;2024-01-30T14:16:33;9.20;;;6.07;;
71836;SDS011;59686;51.716;7.016;2024-01-30T14:18:59;11.23;;;6.10;;
71836;SDS011;59686;51.716;7.016;2024-01-30T14:21:25;7.80;;;6.00;;
71836;SDS011;59686;51.716;7.016;2024-01-30T14:23:50;8.93;;;6.37;;
71836;SDS011;59686;51.716;7.016;2024-01-30T14:26:16;7.23;;;5.63;;
71836;SDS011;59686;51.716;7.016;2024-01-30T14:28:43;10.27;;;6.87;;
71836;SDS011;59686;51.716;7.016;2024-01-30T14:31:10;8.57;;;6.10;;
71836;SDS011;59686;51.716;7.016;2024-01-30T14:33:36;8.40;;;6.00;;
71836;SDS011;59686;51.716;7.016;2024-01-30T14:36:02;12.70;;;6.40;;
71836;SDS011;59686;51.716;7.016;2024-01-30T14:38:28;9.87;;;6.23;;
71836;SDS011;59686;51.716;7.016;2024-01-30T14:40:54;8.30;;;6.27;;
71836;SDS011;59686;51.716;7.016;2024-01-30T14:43:20;8.70;;;6.37;;
71836;SDS011;59686;51.716;7.016;2024-01-30T14:45:45;11.67;;;6.63;;
71836;SDS011;59686;51.716;7.016;2024-01-30T14:48:16;7.40;;;5.77;;
71836;SDS011;59686;51.716;7.016;2024-01-30T14:50:45;9.70;;;6.83;;
71836;SDS011;59686;51.716;7.016;2024-01-30T14:53:10;8.87;;;6.43;;
71836;SDS011;59686;51.716;7.016;2024-01-30T14:55:37;7.60;;;6.20;;
71836;SDS011;59686;51.716;7.016;2024-01-30T14:58:03;6.57;;;5.73;;
71836;SDS011;59686;51.716;7.016;2024-01-30T15:00:29;11.30;;;6.27;;
71836;SDS011;59686;51.716;7.016;2024-01-30T15:02:55;8.53;;;5.43;;
71836;SDS011;59686;51.716;7.016;2024-01-30T15:08:07;8.60;;;5.20;;
71836;SDS011;59686;51.716;7.016;2024-01-30T15:10:33;12.13;;;5.53;;